Delaware City, Delaware
Current Conditions -  °F | °C
As of 7:51 AM on Thursday 23 Oct 2014 (Local Time) from KILG Reporting Station
Overcast Overcast  
Wind Chill: 51°   Ceiling: 4100
Heat Index: 51°   Visibility: 10mi
Dew Point: 46°   Wind: 14mph
Humidity: 83%   Direction: 320°NW
Pressure: 29.8"   Gusts: NA
Location:  39.58°N, 75.59°W
Report Text: KILG 231151Z AUTO 32012KT 10SM BKN041 OVC050 11/08 A2980 RMK AO2 RAE07B28E47 SLP090 P0001 60001 70036 T01060078 10117 20106 50005
Loading
Personal Weather Stations






























Interactive Weather Map
Tropical Storm Tracking
New forecast layout! Learn more

10-Day Weather Forecast

Advertisements
Track Severe Weather on mobile